Featured Flight

MET2096 - Chicago to Boston

Embraer ERJ-170LR
N922AG
2 hrs 00 mins
752 nm
Scheduled - Daily

Bid/PiRep Status

Bid was submitted on Jan 05 2017.

PiRep # 74617: Approved by Sean Doyle on January 6th, 2017 3:55 UTC

Departure

Departing from
Chicago (ORD)
Departure gate
Scheduled Departure
GMT 1400
Local 0800
METAR KORD 170210Z VRB04KT 5SM -RA BR OVC004 03/02 A2996 RMK AO2 P0001 T00280022
TAF KORD 162332Z 1700/1806 08006KT 3SM -SHRA BR OVC005 FM170100 10009KT 1SM SHRA BR OVC003 TEMPO 1702/1704 09012KT 1/2SM TSRA FG OVC003CB FM170600 VRB03KT 3/4SM -RADZ BR OVC003 TEMPO 1706/1710 1/2SM FG FM171300 24010KT 2SM -DZ BR OVC003 FM172000 27008KT 4SM BR VCSH OVC007 FM180300 30008KT 4SM -DZ BR OVC007
  • No charts available

Arrival

Arriving at
Boston (BOS)
Arrival gate
Scheduled Arrival
GMT 1600
Local 1100
METAR KBOS 170154Z 24011KT 10SM SCT130 BKN210 02/M07 A3025 RMK AO2 SLP241 T00221072 $
TAF KBOS 162341Z 1700/1806 24010KT P6SM BKN250 FM171100 29004KT P6SM FEW250 FM171400 35004KT P6SM SCT250 FM171700 05005KT P6SM BKN200 FM172300 10006KT P6SM -RA OVC030 FM180100 11007KT 3SM -RASN OVC010

Route Map

Planning Resources

MOPER J30 ESL J34 DRUZZ RAVNN3 CSN GRAPA VOLEY DENII JANNS SEVRN GRAFE FIX 25
MOPER J30 ESL J34 DRUZZ RAVNN3 CSN CATAY TERPZ BMORE FND KEVVN TATTO FIX 25
GSH ASHEN MAYZE DJB LIVER AVERE IHD IHD53 BUFFR
GIJ J146 WOOST J34 AIR MGW LIZIO MUMSY MRB RUANE EMI STRPS DEDLE EDMEF
KMDW OXI FWA APE BUCKO ESL TRIXY AML KBWI
Route:
OFP Layout:
Units:
Detailed Navlog:
ETOPS Planning:
Plan Stepclimbs:
Runway Analysis:
Include NOTAMS:
FIR NOTAMS:
Flight Maps:

Return Flights

MET125
Boeing 777-300ER
1530 GMT
MET687
Airbus A319-131
0200 GMT
MET2081
Embraer ERJ-170LR
1430 GMT
MET2083
Embraer ERJ-170LR
1930 GMT
MET2085
Embraer ERJ-170LR
0030 GMT
MET2087
Embraer ERJ-170LR
0530 GMT
MET2089
Embraer ERJ-170LR
1530 GMT
MET2091
Embraer ERJ-170LR
2030 GMT
MET2093
Embraer ERJ-170LR
0130 GMT
MET2095
Embraer ERJ-170LR
0630 GMT
MET2097
Embraer ERJ-170LR
1630 GMT
MET2099
Embraer ERJ-170LR
2130 GMT
MET3001
Embraer ERJ-170LR
0230 GMT
MET3003
Embraer ERJ-170LR
0730 GMT
MET3005
Embraer ERJ-170LR
1730 GMT
MET3007
Embraer ERJ-170LR
2230 GMT
MET3009
Embraer ERJ-170LR
0330 GMT
MET3011
Embraer ERJ-170LR
1830 GMT
MET3013
Embraer ERJ-170LR
2330 GMT
MET3015
Embraer ERJ-170LR
0430 GMT

Popularity

Hub Current Bids PiReps this month Total PiReps
KMCI 0 0 0
KLAX 0 0 0
KBOS 0 1 1